createdAt,value
2023-03-05T00:01:33.488Z,97034.30
2023-03-05T00:04:03.940Z,97029.48
2023-03-05T00:06:32.699Z,97025.77
2023-03-05T00:09:01.149Z,97025.32
2023-03-05T00:11:31.834Z,97031.73
2023-03-05T00:14:01.929Z,97035.62
2023-03-05T00:16:30.348Z,97029.13
2023-03-05T00:19:00.441Z,97030.10
2023-03-05T00:21:31.770Z,97036.41
2023-03-05T00:24:02.338Z,97036.86
2023-03-05T00:26:31.332Z,97039.15
2023-03-05T00:29:00.456Z,97035.40
2023-03-05T00:31:30.859Z,97037.48
2023-03-05T00:34:01.782Z,97036.94
2023-03-05T00:36:30.371Z,97035.36
2023-03-05T00:38:59.028Z,97035.69
2023-03-05T00:41:28.144Z,97034.28
2023-03-05T00:43:56.551Z,97034.91
2023-03-05T00:46:27.423Z,97030.83
2023-03-05T00:48:57.047Z,97032.50
2023-03-05T00:51:25.368Z,97032.55
2023-03-05T00:53:53.646Z,97030.52
2023-03-05T00:56:22.223Z,97026.11
2023-03-05T00:58:50.660Z,97025.19
2023-03-05T01:01:18.896Z,97024.61
2023-03-05T01:03:47.350Z,97025.89
2023-03-05T01:06:19.336Z,97024.08
2023-03-05T01:08:48.014Z,97022.68
2023-03-05T01:11:16.990Z,97022.94
2023-03-05T01:13:44.921Z,97024.17
2023-03-05T01:16:12.957Z,97024.25
2023-03-05T01:18:42.066Z,97019.56
2023-03-05T01:21:11.674Z,97022.74
2023-03-05T01:23:39.722Z,97017.65
2023-03-05T01:26:08.718Z,97016.70
2023-03-05T01:28:38.381Z,97016.89
2023-03-05T01:31:11.611Z,97011.42
2023-03-05T01:33:40.129Z,97008.31
2023-03-05T01:36:13.442Z,97010.55
2023-03-05T01:38:43.847Z,97011.86
2023-03-05T01:41:13.287Z,97008.45
2023-03-05T01:43:42.324Z,97012.36
2023-03-05T01:46:13.261Z,97011.39
2023-03-05T01:48:44.342Z,97008.00
2023-03-05T01:51:12.934Z,97010.37
2023-03-05T01:53:41.848Z,97011.64
2023-03-05T01:56:10.006Z,97007.95
2023-03-05T01:58:39.946Z,97008.85
2023-03-05T02:01:08.182Z,97008.42
2023-03-05T02:03:37.178Z,97008.88
2023-03-05T02:06:05.426Z,97012.09
2023-03-05T02:08:33.429Z,97017.06
2023-03-05T02:11:02.184Z,97018.71
2023-03-05T02:13:35.769Z,97018.96
2023-03-05T02:16:04.381Z,97020.97
2023-03-05T02:18:33.045Z,97025.13
2023-03-05T02:21:05.264Z,97025.55
2023-03-05T02:23:39.080Z,97021.05
2023-03-05T02:26:10.076Z,97020.67
2023-03-05T02:28:46.988Z,97023.00
2023-03-05T02:31:21.687Z,97023.20
2023-03-05T02:33:50.970Z,97024.84
2023-03-05T02:36:19.939Z,97026.89
2023-03-05T02:38:48.465Z,97024.69
2023-03-05T02:41:17.242Z,97027.39
2023-03-05T02:43:45.273Z,97026.23
2023-03-05T02:46:13.706Z,97029.31
2023-03-05T02:48:41.752Z,97026.23
2023-03-05T02:51:12.806Z,97027.20
2023-03-05T02:53:41.278Z,97028.86
2023-03-05T02:56:09.318Z,97030.66
2023-03-05T02:58:37.684Z,97032.97
2023-03-05T03:01:06.021Z,97035.41
2023-03-05T03:03:34.172Z,97033.33
2023-03-05T03:06:02.446Z,97032.64
2023-03-05T03:08:30.710Z,97031.35
2023-03-05T03:11:12.679Z,97034.89
2023-03-05T03:13:41.763Z,97032.94
2023-03-05T03:16:12.999Z,97026.95
2023-03-05T03:18:41.806Z,97029.10
2023-03-05T03:21:17.306Z,97027.94
2023-03-05T03:23:45.574Z,97026.85
2023-03-05T03:26:13.606Z,97027.02
2023-03-05T03:28:41.980Z,97027.27
2023-03-05T03:31:10.448Z,97028.67
2023-03-05T03:33:38.435Z,97031.70
2023-03-05T03:36:07.348Z,97031.71
2023-03-05T03:38:35.609Z,97035.02
2023-03-05T03:41:06.701Z,97033.48
2023-03-05T03:43:36.217Z,97031.29
2023-03-05T03:46:08.167Z,97031.65
2023-03-05T03:48:36.236Z,97034.64
2023-03-05T03:51:06.938Z,97028.79
2023-03-05T03:53:35.249Z,97031.92
2023-03-05T03:56:03.741Z,97032.39
2023-03-05T03:58:32.532Z,97035.85
2023-03-05T04:01:00.983Z,97035.55
2023-03-05T04:03:29.065Z,97035.80
2023-03-05T04:05:57.004Z,97035.81
2023-03-05T04:08:25.151Z,97037.64
2023-03-05T04:10:53.108Z,97036.06
2023-03-05T04:13:21.058Z,97039.38
2023-03-05T04:15:49.133Z,97033.43
2023-03-05T04:18:17.455Z,97033.00
2023-03-05T04:20:45.530Z,97039.19
2023-03-05T04:23:13.957Z,97039.29
2023-03-05T04:25:42.043Z,97035.45
2023-03-05T04:28:12.866Z,97033.23
2023-03-05T04:30:41.108Z,97032.54
2023-03-05T04:33:09.338Z,97029.16
2023-03-05T04:35:37.504Z,97029.28
2023-03-05T04:38:06.156Z,97029.14
2023-03-05T04:40:35.008Z,97027.70
2023-03-05T04:43:03.321Z,97029.60
2023-03-05T04:45:31.808Z,97029.81
2023-03-05T04:48:00.420Z,97029.42
2023-03-05T04:50:28.577Z,97029.41
2023-03-05T04:52:57.418Z,97031.20
2023-03-05T04:55:25.487Z,97034.46
2023-03-05T04:57:53.966Z,97033.43
2023-03-05T05:00:23.176Z,97031.60
2023-03-05T05:02:52.440Z,97035.15
2023-03-05T05:05:23.331Z,97043.13
2023-03-05T05:07:55.413Z,97041.75
2023-03-05T05:10:28.408Z,97045.98
2023-03-05T05:12:56.617Z,97050.11
2023-03-05T05:15:24.677Z,97052.96
2023-03-05T05:17:52.763Z,97052.45
2023-03-05T05:20:20.851Z,97056.76
2023-03-05T05:22:48.962Z,97064.10
2023-03-05T05:25:18.493Z,97064.48
2023-03-05T05:27:48.867Z,97059.71
2023-03-05T05:30:17.467Z,97062.17
2023-03-05T05:32:46.031Z,97066.67
2023-03-05T05:35:13.926Z,97064.48
2023-03-05T05:37:41.918Z,97069.73
2023-03-05T05:40:10.821Z,97070.73
2023-03-05T05:42:39.066Z,97075.34
2023-03-05T05:45:08.194Z,97071.93
2023-03-05T05:47:36.281Z,97074.63
2023-03-05T05:50:05.614Z,97078.10
2023-03-05T05:52:33.817Z,97081.50
2023-03-05T05:55:01.838Z,97086.96
2023-03-05T05:57:29.806Z,97088.17
2023-03-05T05:59:57.728Z,97093.17
2023-03-05T06:02:27.839Z,97097.46
2023-03-05T06:04:58.343Z,97098.10
2023-03-05T06:07:26.573Z,97101.40
2023-03-05T06:09:54.573Z,97098.30
2023-03-05T06:12:22.658Z,97103.35
2023-03-05T06:14:50.668Z,97103.83
2023-03-05T06:17:29.858Z,97105.20
2023-03-05T06:19:59.707Z,97101.18
2023-03-05T06:22:27.989Z,97106.02
2023-03-05T06:24:56.667Z,97108.67
2023-03-05T06:27:24.764Z,97110.95
2023-03-05T06:29:54.444Z,97117.27
2023-03-05T06:32:23.325Z,97119.60
2023-03-05T06:34:51.634Z,97118.42
2023-03-05T06:37:20.203Z,97117.42
2023-03-05T06:39:48.244Z,97117.27
2023-03-05T06:42:17.916Z,97119.24
2023-03-05T06:44:47.963Z,97118.61
2023-03-05T06:47:16.364Z,97117.21
2023-03-05T06:49:44.502Z,97116.44
2023-03-05T06:52:12.969Z,97114.55
2023-03-05T06:54:40.978Z,97116.58
2023-03-05T06:57:11.222Z,97117.75
2023-03-05T06:59:39.423Z,97115.00
2023-03-05T07:02:12.043Z,97113.30
2023-03-05T07:04:40.927Z,97111.46
2023-03-05T07:07:08.896Z,97111.30
2023-03-05T07:09:43.558Z,97113.89
2023-03-05T07:12:12.449Z,97114.06
2023-03-05T07:14:40.542Z,97116.45
2023-03-05T07:17:08.715Z,97120.16
2023-03-05T07:19:39.268Z,97118.45
2023-03-05T07:22:08.946Z,97122.17
2023-03-05T07:24:37.045Z,97121.59
2023-03-05T07:27:05.093Z,97122.40
2023-03-05T07:29:33.193Z,97125.59
2023-03-05T07:32:01.930Z,97123.91
2023-03-05T07:34:29.914Z,97123.01
2023-03-05T07:36:58.152Z,97124.59
2023-03-05T07:39:26.274Z,97123.84
2023-03-05T07:41:54.272Z,97125.15
2023-03-05T07:44:27.541Z,97124.03
2023-03-05T07:46:57.051Z,97121.23
2023-03-05T07:49:25.034Z,97118.96
2023-03-05T07:51:53.532Z,97114.08
2023-03-05T07:54:22.316Z,97116.03
2023-03-05T07:56:51.312Z,97115.86
2023-03-05T07:59:19.284Z,97110.11
2023-03-05T08:01:47.358Z,97105.50
2023-03-05T08:04:15.429Z,97108.05
2023-03-05T08:06:43.601Z,97108.98
2023-03-05T08:09:13.476Z,97106.46
2023-03-05T08:11:41.690Z,97103.70
2023-03-05T08:14:10.248Z,97105.14
2023-03-05T08:16:39.612Z,97104.38
2023-03-05T08:19:08.495Z,97102.61
2023-03-05T08:21:37.580Z,97102.85
2023-03-05T08:24:08.284Z,97100.68
2023-03-05T08:26:38.563Z,97096.54
2023-03-05T08:29:08.515Z,97097.33
2023-03-05T08:31:37.585Z,97092.15
2023-03-05T08:34:06.431Z,97088.33
2023-03-05T08:36:34.504Z,97087.45
2023-03-05T08:39:03.596Z,97085.98
2023-03-05T08:41:31.597Z,97086.95
2023-03-05T08:43:59.912Z,97086.91
2023-03-05T08:46:28.034Z,97080.65
2023-03-05T08:48:56.597Z,97082.88
2023-03-05T08:51:26.072Z,97081.50
2023-03-05T08:53:58.301Z,97083.94
2023-03-05T08:56:28.630Z,97077.80
2023-03-05T08:58:57.375Z,97076.48
2023-03-05T09:01:25.682Z,97078.73
2023-03-05T09:03:54.708Z,97078.73
2023-03-05T09:06:24.105Z,97079.24
2023-03-05T09:08:52.563Z,97073.01
2023-03-05T09:11:21.955Z,97072.81
2023-03-05T09:13:51.238Z,97071.28
2023-03-05T09:16:20.113Z,97071.36
2023-03-05T09:18:48.284Z,97073.30
2023-03-05T09:21:18.174Z,97071.62
2023-03-05T09:23:49.480Z,97069.93
2023-03-05T09:26:21.377Z,97066.94
2023-03-05T09:28:51.745Z,97070.98
2023-03-05T09:31:20.325Z,97068.01
2023-03-05T09:33:49.690Z,97064.48
2023-03-05T09:36:21.024Z,97061.77
2023-03-05T09:38:49.740Z,97064.55
2023-03-05T09:41:55.643Z,97066.33
2023-03-05T09:44:50.913Z,97067.46
2023-03-05T09:47:38.140Z,97061.66
2023-03-05T09:50:32.493Z,97059.73
2023-03-05T09:53:21.220Z,97053.65
2023-03-05T09:55:53.759Z,97052.42
2023-03-05T09:59:00.659Z,97050.92
2023-03-05T10:01:39.779Z,97049.57
2023-03-05T10:04:15.539Z,97046.80
2023-03-05T10:07:02.842Z,97041.89
2023-03-05T10:09:51.088Z,97043.73
2023-03-05T10:12:43.099Z,97040.64
2023-03-05T10:15:20.189Z,97034.48
2023-03-05T10:17:59.159Z,97030.68
2023-03-05T10:20:40.384Z,97035.17
2023-03-05T10:23:08.809Z,97029.04
2023-03-05T10:26:12.184Z,97023.16
2023-03-05T10:28:43.675Z,97024.23
2023-03-05T10:31:44.027Z,97021.34
2023-03-05T10:34:48.681Z,97015.15
2023-03-05T10:37:34.856Z,97018.98
2023-03-05T10:40:15.098Z,97014.33
2023-03-05T10:42:48.432Z,97013.95
2023-03-05T10:45:43.168Z,97014.94
2023-03-05T10:48:44.510Z,97010.41
2023-03-05T10:51:36.958Z,97010.48
2023-03-05T10:54:29.824Z,97006.45
2023-03-05T10:57:20.746Z,96998.20
2023-03-05T10:59:48.822Z,96994.79
2023-03-05T11:02:18.893Z,96989.15
2023-03-05T11:04:47.662Z,96986.67
2023-03-05T11:07:15.802Z,96983.28
2023-03-05T11:10:02.058Z,96979.45
2023-03-05T11:12:33.857Z,96974.27
2023-03-05T11:15:05.077Z,96970.41
2023-03-05T11:17:45.519Z,96972.14
2023-03-05T11:20:31.924Z,96969.89
2023-03-05T11:23:24.049Z,96963.10
2023-03-05T11:26:06.351Z,96956.80
2023-03-05T11:28:55.303Z,96954.18
2023-03-05T11:31:34.621Z,96953.20
2023-03-05T11:34:04.401Z,96946.08
2023-03-05T11:36:42.499Z,96941.23
2023-03-05T11:39:16.753Z,96939.09
2023-03-05T11:41:50.868Z,96934.81
2023-03-05T11:44:27.695Z,96923.75
2023-03-05T11:47:02.722Z,96927.08
2023-03-05T11:49:35.121Z,96925.03
2023-03-05T11:52:14.991Z,96923.48
2023-03-05T11:55:16.015Z,96918.36
2023-03-05T11:57:48.321Z,96923.98
2023-03-05T12:00:24.730Z,96916.54
2023-03-05T12:02:55.578Z,96909.26
2023-03-05T12:05:24.196Z,96909.13
2023-03-05T12:07:58.404Z,96907.06
2023-03-05T12:10:28.433Z,96901.64
2023-03-05T12:13:11.437Z,96898.81
2023-03-05T12:16:14.698Z,96891.91
2023-03-05T12:19:10.432Z,96893.23
2023-03-05T12:21:44.557Z,96885.67
2023-03-05T12:24:27.458Z,96879.80
2023-03-05T12:27:05.239Z,96877.98
2023-03-05T12:29:50.545Z,96874.19
2023-03-05T12:32:34.315Z,96870.13
2023-03-05T12:35:06.537Z,96869.34
2023-03-05T12:37:34.554Z,96870.45
2023-03-05T12:40:09.012Z,96865.88
2023-03-05T12:42:47.697Z,96867.65
2023-03-05T12:45:19.804Z,96866.80
2023-03-05T12:47:48.430Z,96869.91
2023-03-05T12:50:28.465Z,96867.90
2023-03-05T12:53:14.403Z,96871.73
2023-03-05T12:55:45.920Z,96869.45
2023-03-05T12:58:44.504Z,96873.16
2023-03-05T13:01:18.871Z,96866.12
2023-03-05T13:04:12.521Z,96868.31
2023-03-05T13:06:42.421Z,96869.77
2023-03-05T13:09:25.215Z,96868.63
2023-03-05T13:11:55.357Z,96864.52
2023-03-05T13:14:55.770Z,96858.85
2023-03-05T13:17:54.817Z,96863.06
2023-03-05T13:20:42.818Z,96861.50
2023-03-05T13:23:18.911Z,96857.58
2023-03-05T13:25:58.141Z,96857.16
2023-03-05T13:28:27.218Z,96854.81
2023-03-05T13:31:18.662Z,96852.70
2023-03-05T13:33:57.260Z,96859.71
2023-03-05T13:36:26.808Z,96856.50
2023-03-05T13:38:56.169Z,96857.19
2023-03-05T13:41:28.166Z,96859.48
2023-03-05T13:44:01.803Z,96862.97
2023-03-05T13:46:39.129Z,96868.96
2023-03-05T13:49:26.056Z,96869.52
2023-03-05T13:51:58.032Z,96874.94
2023-03-05T13:54:28.150Z,96878.37
2023-03-05T13:56:58.841Z,96874.77
2023-03-05T13:59:33.936Z,96878.35
2023-03-05T14:02:04.585Z,96874.21
2023-03-05T14:04:37.547Z,96872.02
2023-03-05T14:07:31.785Z,96877.73
2023-03-05T14:10:00.442Z,96879.98
2023-03-05T14:12:35.192Z,96872.23
2023-03-05T14:15:22.596Z,96872.20
2023-03-05T14:17:51.353Z,96868.05
2023-03-05T14:20:27.446Z,96870.07
2023-03-05T14:22:58.358Z,96871.19
2023-03-05T14:25:39.889Z,96871.59
2023-03-05T14:28:17.047Z,96871.92
2023-03-05T14:30:50.705Z,96864.64
2023-03-05T14:33:25.980Z,96864.01
2023-03-05T14:35:55.475Z,96868.73
2023-03-05T14:38:28.423Z,96865.06
2023-03-05T14:40:56.867Z,96865.35
2023-03-05T14:43:24.982Z,96867.20
2023-03-05T14:45:53.083Z,96866.63
2023-03-05T14:48:21.227Z,96863.88
2023-03-05T14:50:56.808Z,96866.33
2023-03-05T14:53:33.292Z,96863.36
2023-03-05T14:56:02.895Z,96863.27
2023-03-05T14:58:35.924Z,96865.48
2023-03-05T15:01:04.102Z,96863.36
2023-03-05T15:03:34.601Z,96865.15
2023-03-05T15:06:03.052Z,96864.20
2023-03-05T15:08:32.578Z,96871.89
2023-03-05T15:11:11.504Z,96867.14
2023-03-05T15:13:42.071Z,96869.57
2023-03-05T15:16:16.497Z,96871.88
2023-03-05T15:18:44.672Z,96869.29
2023-03-05T15:21:14.264Z,96868.51
2023-03-05T15:23:44.256Z,96864.45
2023-03-05T15:26:15.052Z,96871.16
2023-03-05T15:28:43.880Z,96862.21
2023-03-05T15:31:11.880Z,96862.42
2023-03-05T15:33:41.898Z,96863.35
2023-03-05T15:36:12.129Z,96862.98
2023-03-05T15:38:41.784Z,96868.11
2023-03-05T15:41:11.190Z,96867.39
2023-03-05T15:43:39.264Z,96864.38
2023-03-05T15:46:10.371Z,96868.86
2023-03-05T15:48:38.462Z,96865.74
2023-03-05T15:51:07.438Z,96868.42
2023-03-05T15:53:35.480Z,96870.98
2023-03-05T15:56:03.567Z,96869.03
2023-03-05T15:58:32.112Z,96866.66
2023-03-05T16:01:00.168Z,96866.65
2023-03-05T16:03:28.981Z,96868.61
2023-03-05T16:05:57.535Z,96873.16
2023-03-05T16:08:25.646Z,96875.08
2023-03-05T16:10:53.968Z,96872.81
2023-03-05T16:13:22.801Z,96875.45
2023-03-05T16:15:53.821Z,96878.27
2023-03-05T16:18:24.360Z,96879.00
2023-03-05T16:20:52.562Z,96876.60
2023-03-05T16:23:22.050Z,96880.48
2023-03-05T16:25:51.261Z,96880.70
2023-03-05T16:28:20.013Z,96879.67
2023-03-05T16:30:57.486Z,96880.73
2023-03-05T16:33:25.747Z,96884.17
2023-03-05T16:36:12.738Z,96883.12
2023-03-05T16:38:41.830Z,96896.58
2023-03-05T16:41:10.298Z,96890.10
2023-03-05T16:43:38.742Z,96893.48
2023-03-05T16:46:06.756Z,96900.32
2023-03-05T16:48:35.915Z,96894.03
2023-03-05T16:51:05.591Z,96899.88
2023-03-05T16:53:35.599Z,96901.02
2023-03-05T16:56:06.080Z,96901.11
2023-03-05T16:58:35.595Z,96903.21
2023-03-05T17:01:08.353Z,96903.88
2023-03-05T17:03:38.968Z,96910.20
2023-03-05T17:06:29.335Z,96909.38
2023-03-05T17:09:01.944Z,96913.07
2023-03-05T17:11:30.403Z,96914.09
2023-03-05T17:13:58.444Z,96911.47
2023-03-05T17:16:26.729Z,96913.54
2023-03-05T17:18:56.649Z,96920.73
2023-03-05T17:21:24.647Z,96922.17
2023-03-05T17:23:52.862Z,96926.34
2023-03-05T17:26:21.207Z,96923.37
2023-03-05T17:28:49.197Z,96922.64
2023-03-05T17:31:17.281Z,96928.58
2023-03-05T17:33:47.463Z,96927.85
2023-03-05T17:36:18.510Z,96926.64
2023-03-05T17:38:48.441Z,96925.79
2023-03-05T17:41:19.203Z,96926.41
2023-03-05T17:43:47.199Z,96931.13
2023-03-05T17:46:16.906Z,96931.73
2023-03-05T17:48:45.366Z,96924.54
2023-03-05T17:51:16.300Z,96926.64
2023-03-05T17:53:45.224Z,96926.14
2023-03-05T17:56:14.719Z,96931.67
2023-03-05T17:58:45.180Z,96930.77
2023-03-05T18:01:26.372Z,96930.92
2023-03-05T18:03:54.966Z,96934.20
2023-03-05T18:06:23.641Z,96933.33
2023-03-05T18:08:52.212Z,96932.16
2023-03-05T18:11:20.419Z,96931.02
2023-03-05T18:13:48.495Z,96934.09
2023-03-05T18:16:18.277Z,96931.70
2023-03-05T18:18:49.438Z,96934.23
2023-03-05T18:21:22.220Z,96932.01
2023-03-05T18:23:51.649Z,96932.80
2023-03-05T18:26:19.713Z,96931.77
2023-03-05T18:28:48.730Z,96935.86
2023-03-05T18:31:25.563Z,96934.21
2023-03-05T18:33:54.148Z,96931.27
2023-03-05T18:36:24.815Z,96929.70
2023-03-05T18:38:52.852Z,96930.32
2023-03-05T18:41:27.779Z,96937.04
2023-03-05T18:43:56.346Z,96939.45
2023-03-05T18:46:27.207Z,96935.31
2023-03-05T18:48:55.235Z,96934.52
2023-03-05T18:51:24.187Z,96935.20
2023-03-05T18:53:55.360Z,96937.00
2023-03-05T18:56:24.612Z,96927.54
2023-03-05T18:58:53.174Z,96934.40
2023-03-05T19:01:21.863Z,96935.45
2023-03-05T19:03:50.585Z,96935.29
2023-03-05T19:06:19.936Z,96935.95
2023-03-05T19:08:57.102Z,96933.52
2023-03-05T19:11:42.976Z,96937.52
2023-03-05T19:14:11.025Z,96935.50
2023-03-05T19:16:43.949Z,96934.60
2023-03-05T19:19:15.985Z,96933.45
2023-03-05T19:21:46.372Z,96936.26
2023-03-05T19:24:18.155Z,96943.28
2023-03-05T19:26:48.381Z,96948.73
2023-03-05T19:29:16.640Z,96944.56
2023-03-05T19:31:45.591Z,96942.58
2023-03-05T19:34:13.958Z,96946.54
2023-03-05T19:36:42.027Z,96947.04
2023-03-05T19:39:11.544Z,96948.44
2023-03-05T19:41:40.422Z,96948.02
2023-03-05T19:44:09.385Z,96950.52
2023-03-05T19:46:37.390Z,96949.38
2023-03-05T19:49:05.411Z,96951.95
2023-03-05T19:51:33.937Z,96955.70
2023-03-05T19:54:04.549Z,96955.81
2023-03-05T19:56:32.642Z,96953.98
2023-03-05T19:59:02.190Z,96957.39
2023-03-05T20:01:30.606Z,96958.61
2023-03-05T20:04:00.990Z,96952.97
2023-03-05T20:06:30.920Z,96953.55
2023-03-05T20:08:59.159Z,96949.70
2023-03-05T20:11:29.107Z,96951.02
2023-03-05T20:13:57.672Z,96948.23
2023-03-05T20:16:29.912Z,96946.55
2023-03-05T20:18:59.960Z,96948.10
2023-03-05T20:21:37.306Z,96943.16
2023-03-05T20:24:09.871Z,96944.30
2023-03-05T20:26:39.407Z,96942.37
2023-03-05T20:29:08.185Z,96946.20
2023-03-05T20:31:37.678Z,96946.89
2023-03-05T20:34:08.524Z,96948.36
2023-03-05T20:36:36.793Z,96941.52
2023-03-05T20:39:05.853Z,96940.84
2023-03-05T20:41:36.540Z,96937.27
2023-03-05T20:44:05.435Z,96935.33
2023-03-05T20:46:36.661Z,96934.55
2023-03-05T20:49:12.794Z,96930.60
2023-03-05T20:51:41.366Z,96930.80
2023-03-05T20:54:12.223Z,96931.71
2023-03-05T20:56:40.288Z,96927.56
2023-03-05T20:59:08.940Z,96925.44
2023-03-05T21:01:39.890Z,96923.19
2023-03-05T21:04:08.967Z,96925.67
2023-03-05T21:06:37.508Z,96929.46
2023-03-05T21:09:05.513Z,96928.81
2023-03-05T21:11:35.684Z,96929.59
2023-03-05T21:14:03.752Z,96934.20
2023-03-05T21:16:31.874Z,96929.86
2023-03-05T21:19:00.112Z,96929.36
2023-03-05T21:21:28.655Z,96930.95
2023-03-05T21:23:57.386Z,96928.87
2023-03-05T21:26:25.513Z,96928.95
2023-03-05T21:28:54.180Z,96932.00
2023-03-05T21:31:22.732Z,96927.21
2023-03-05T21:33:50.758Z,96919.87
2023-03-05T21:36:19.164Z,96918.46
2023-03-05T21:38:48.258Z,96920.46
2023-03-05T21:41:18.185Z,96922.05
2023-03-05T21:43:47.145Z,96919.29
2023-03-05T21:46:15.314Z,96912.73
2023-03-05T21:48:43.794Z,96912.21
2023-03-05T21:51:51.094Z,96910.58
2023-03-05T21:54:23.716Z,96916.09
2023-03-05T21:56:52.854Z,96911.73
2023-03-05T21:59:20.870Z,96909.44
2023-03-05T22:01:52.376Z,96909.92
2023-03-05T22:04:20.735Z,96911.72
2023-03-05T22:06:48.833Z,96912.06
2023-03-05T22:09:16.900Z,96912.55
2023-03-05T22:11:45.258Z,96903.83
2023-03-05T22:14:14.371Z,96900.53
2023-03-05T22:16:43.134Z,96896.12
2023-03-05T22:19:11.219Z,96897.81
2023-03-05T22:21:39.332Z,96888.58
2023-03-05T22:24:07.607Z,96879.93
2023-03-05T22:26:38.351Z,96882.41
2023-03-05T22:29:08.781Z,96885.39
2023-03-05T22:31:38.911Z,96882.64
2023-03-05T22:34:07.261Z,96881.45
2023-03-05T22:36:35.982Z,96884.05
2023-03-05T22:39:04.416Z,96886.98
2023-03-05T22:41:32.527Z,96885.39
2023-03-05T22:44:00.445Z,96883.92
2023-03-05T22:46:28.535Z,96882.00
2023-03-05T22:48:56.622Z,96882.60
2023-03-05T22:51:24.857Z,96883.91
2023-03-05T22:53:53.244Z,96879.80
2023-03-05T22:56:23.369Z,96874.13
2023-03-05T22:58:51.434Z,96873.36
2023-03-05T23:01:22.801Z,96877.34
2023-03-05T23:04:49.694Z,96879.33
2023-03-05T23:07:21.085Z,96878.81
2023-03-05T23:09:58.256Z,96874.12
2023-03-05T23:12:28.494Z,96875.90
2023-03-05T23:14:59.916Z,96871.91
2023-03-05T23:17:27.895Z,96870.45
2023-03-05T23:19:55.929Z,96870.11
2023-03-05T23:22:23.883Z,96872.03
2023-03-05T23:24:51.879Z,96874.73
2023-03-05T23:27:20.084Z,96875.93
2023-03-05T23:30:19.648Z,96878.04
2023-03-05T23:32:49.414Z,96877.58
2023-03-05T23:35:23.698Z,96877.52
2023-03-05T23:37:53.443Z,96878.38
2023-03-05T23:40:27.534Z,96874.80
2023-03-05T23:42:55.903Z,96874.45
2023-03-05T23:45:24.030Z,96874.30
2023-03-05T23:47:53.063Z,96872.65
2023-03-05T23:50:22.773Z,96873.10
2023-03-05T23:52:51.238Z,96873.73
2023-03-05T23:55:26.282Z,96868.16
2023-03-05T23:57:55.295Z,96872.04
